createdAt,value
2019-03-22T00:00:19.039Z,81.60
2019-03-22T00:02:47.485Z,81.40
2019-03-22T00:05:15.917Z,82.10
2019-03-22T00:07:44.382Z,81.40
2019-03-22T00:10:12.874Z,81.40
2019-03-22T00:12:41.341Z,81.70
2019-03-22T00:15:09.905Z,81.90
2019-03-22T00:17:38.361Z,81.90
2019-03-22T00:20:07.733Z,82.10
2019-03-22T00:22:36.179Z,82.10
2019-03-22T00:25:06.212Z,81.90
2019-03-22T00:27:34.663Z,83.90
2019-03-22T00:30:23.824Z,82.20
2019-03-22T00:32:54.059Z,82.50
2019-03-22T00:35:22.713Z,82.50
2019-03-22T00:37:51.185Z,83.60
2019-03-22T00:40:19.660Z,83.20
2019-03-22T00:42:48.098Z,83.50
2019-03-22T00:45:16.536Z,83.20
2019-03-22T00:47:44.983Z,82.90
2019-03-22T00:50:14.054Z,83.20
2019-03-22T00:52:42.510Z,84.60
2019-03-22T00:55:10.936Z,83.20
2019-03-22T00:57:39.381Z,84.50
2019-03-22T01:00:13.467Z,86.00
2019-03-22T01:02:42.227Z,85.10
2019-03-22T01:05:11.093Z,86.50
2019-03-22T01:07:39.577Z,86.30
2019-03-22T01:10:12.891Z,85.40
2019-03-22T01:12:41.337Z,85.30
2019-03-22T01:15:13.483Z,85.00
2019-03-22T01:17:42.574Z,84.60
2019-03-22T01:20:12.345Z,84.30
2019-03-22T01:22:40.851Z,84.60
2019-03-22T01:25:10.531Z,84.70
2019-03-22T01:27:40.894Z,84.70
2019-03-22T01:30:28.529Z,84.40
2019-03-22T01:32:56.974Z,84.80
2019-03-22T01:35:25.505Z,84.90
2019-03-22T01:37:54.017Z,84.70
2019-03-22T01:40:22.446Z,84.40
2019-03-22T01:42:50.890Z,85.80
2019-03-22T01:45:19.600Z,84.90
2019-03-22T01:47:48.378Z,86.20
2019-03-22T01:50:18.158Z,85.40
2019-03-22T01:52:46.605Z,85.40
2019-03-22T01:55:15.105Z,85.70
2019-03-22T01:57:52.479Z,85.50
2019-03-22T02:00:15.562Z,86.40
2019-03-22T02:02:44.273Z,86.10
2019-03-22T02:05:13.021Z,86.50
2019-03-22T02:07:41.486Z,85.80
2019-03-22T02:10:12.254Z,85.50
2019-03-22T02:12:41.897Z,86.40
2019-03-22T02:15:15.301Z,86.50
2019-03-22T02:17:44.191Z,87.00
2019-03-22T02:20:37.381Z,87.10
2019-03-22T02:23:05.833Z,86.40
2019-03-22T02:25:34.270Z,87.10
2019-03-22T02:28:04.453Z,85.50
2019-03-22T02:30:32.867Z,85.70
2019-03-22T02:33:01.310Z,85.80
2019-03-22T02:35:29.865Z,85.90
2019-03-22T02:37:58.374Z,85.50
2019-03-22T02:40:32.693Z,85.70
2019-03-22T02:43:01.136Z,85.60
2019-03-22T02:45:29.581Z,86.10
2019-03-22T02:47:58.037Z,86.00
2019-03-22T02:50:26.522Z,86.00
2019-03-22T02:52:54.974Z,86.90
2019-03-22T02:55:23.406Z,86.30
2019-03-22T02:57:51.863Z,86.40
2019-03-22T03:00:20.362Z,86.90
2019-03-22T03:02:48.806Z,85.90
2019-03-22T03:05:17.378Z,86.80
2019-03-22T03:07:45.824Z,86.40
2019-03-22T03:10:17.107Z,86.80
2019-03-22T03:12:46.142Z,86.80
2019-03-22T03:15:18.300Z,86.80
2019-03-22T03:17:46.894Z,87.20
2019-03-22T03:20:17.358Z,86.90
2019-03-22T03:22:45.882Z,87.10
2019-03-22T03:25:14.625Z,87.10
2019-03-22T03:27:43.078Z,86.90
2019-03-22T03:30:20.524Z,86.70
2019-03-22T03:32:49.117Z,87.10
2019-03-22T03:35:17.965Z,86.70
2019-03-22T03:37:47.322Z,86.70
2019-03-22T03:40:16.340Z,86.30
2019-03-22T03:42:45.209Z,86.90
2019-03-22T03:45:28.507Z,87.00
2019-03-22T03:47:57.021Z,87.10
2019-03-22T03:50:25.461Z,87.40
2019-03-22T03:52:53.935Z,87.30
2019-03-22T03:55:22.365Z,86.70
2019-03-22T03:57:50.937Z,88.10
2019-03-22T04:00:19.415Z,89.20
2019-03-22T04:02:47.874Z,88.40
2019-03-22T04:05:16.317Z,87.70
2019-03-22T04:07:44.770Z,87.70
2019-03-22T04:10:13.275Z,88.00
2019-03-22T04:12:41.745Z,89.00
2019-03-22T04:15:10.509Z,88.10
2019-03-22T04:17:38.958Z,87.60
2019-03-22T04:20:07.821Z,87.50
2019-03-22T04:22:36.591Z,87.50
2019-03-22T04:25:07.111Z,87.90
2019-03-22T04:27:35.921Z,88.00
2019-03-22T04:30:06.090Z,88.10
2019-03-22T04:32:34.526Z,88.10
2019-03-22T04:35:04.102Z,87.70
2019-03-22T04:37:32.554Z,88.20
2019-03-22T04:40:00.991Z,88.10
2019-03-22T04:42:29.433Z,87.60
2019-03-22T04:44:57.885Z,87.30
2019-03-22T04:47:26.781Z,87.90
2019-03-22T04:49:56.450Z,88.30
2019-03-22T04:52:26.957Z,87.60
2019-03-22T04:54:58.501Z,88.00
2019-03-22T04:57:28.243Z,87.40
2019-03-22T04:59:57.829Z,88.40
2019-03-22T05:02:26.546Z,88.30
2019-03-22T05:04:55.328Z,88.40
2019-03-22T05:07:23.933Z,88.50
2019-03-22T05:09:52.517Z,88.50
2019-03-22T05:12:22.699Z,88.80
2019-03-22T05:14:52.534Z,88.60
2019-03-22T05:17:21.370Z,88.60
2019-03-22T05:19:52.721Z,88.60
2019-03-22T05:22:21.347Z,88.70
2019-03-22T05:24:50.336Z,90.20
2019-03-22T05:27:19.713Z,88.50
2019-03-22T05:29:48.702Z,88.60
2019-03-22T05:32:17.408Z,88.80
2019-03-22T05:34:45.853Z,88.60
2019-03-22T05:37:14.290Z,88.30
2019-03-22T05:39:43.117Z,88.60
2019-03-22T05:42:11.557Z,88.90
2019-03-22T05:44:42.066Z,89.10
2019-03-22T05:47:10.560Z,88.80
2019-03-22T05:49:39.444Z,88.70
2019-03-22T05:52:08.596Z,89.50
2019-03-22T05:54:37.045Z,89.40
2019-03-22T05:57:13.253Z,90.30
2019-03-22T05:59:42.430Z,89.70
2019-03-22T06:02:06.069Z,89.00
2019-03-22T06:04:34.514Z,89.50
2019-03-22T06:07:02.945Z,89.40
2019-03-22T06:09:31.394Z,90.00
2019-03-22T06:12:00.089Z,89.00
2019-03-22T06:14:28.599Z,89.70
2019-03-22T06:16:57.029Z,88.40
2019-03-22T06:19:25.516Z,88.40
2019-03-22T06:21:53.941Z,88.00
2019-03-22T06:24:22.527Z,89.20
2019-03-22T06:26:51.382Z,88.20
2019-03-22T06:29:20.089Z,88.50
2019-03-22T06:31:48.878Z,88.50
2019-03-22T06:34:17.642Z,87.80
2019-03-22T06:36:46.434Z,88.30
2019-03-22T06:39:14.881Z,88.10
2019-03-22T06:41:43.313Z,88.60
2019-03-22T06:44:12.022Z,88.70
2019-03-22T06:46:40.460Z,88.70
2019-03-22T06:49:08.885Z,88.50
2019-03-22T06:51:37.396Z,88.20
2019-03-22T06:54:05.901Z,88.00
2019-03-22T06:56:34.345Z,88.60
2019-03-22T06:59:02.781Z,89.50
2019-03-22T07:01:31.226Z,89.50
2019-03-22T07:03:59.937Z,88.90
2019-03-22T07:06:28.729Z,89.00
2019-03-22T07:08:57.157Z,89.00
2019-03-22T07:11:25.601Z,88.50
2019-03-22T07:13:54.028Z,89.00
2019-03-22T07:16:22.489Z,88.40
2019-03-22T07:18:50.914Z,88.20
2019-03-22T07:21:19.378Z,88.60
2019-03-22T07:23:47.906Z,88.20
2019-03-22T07:26:16.345Z,87.20
2019-03-22T07:28:44.794Z,87.70
2019-03-22T07:31:13.241Z,88.10
2019-03-22T07:33:41.741Z,87.80
2019-03-22T07:36:10.188Z,87.80
2019-03-22T07:38:38.885Z,87.20
2019-03-22T07:41:07.328Z,86.70
2019-03-22T07:43:35.763Z,86.30
2019-03-22T07:46:04.278Z,86.80
2019-03-22T07:48:32.709Z,87.10
2019-03-22T07:51:01.228Z,87.80
2019-03-22T07:53:29.658Z,86.40
2019-03-22T07:55:58.465Z,85.80
2019-03-22T07:58:26.896Z,85.00
2019-03-22T08:00:55.346Z,84.30
2019-03-22T08:03:23.777Z,84.00
2019-03-22T08:05:52.243Z,83.90
2019-03-22T08:08:20.702Z,84.20
2019-03-22T08:10:49.204Z,83.40
2019-03-22T08:13:17.682Z,82.90
2019-03-22T08:15:46.197Z,82.70
2019-03-22T08:18:14.675Z,81.70
2019-03-22T08:20:43.130Z,80.60
2019-03-22T08:23:22.762Z,79.80
2019-03-22T08:25:51.514Z,79.90
2019-03-22T08:28:20.035Z,79.70
2019-03-22T08:30:48.479Z,77.60
2019-03-22T08:33:17.283Z,78.20
2019-03-22T08:35:45.719Z,77.80
2019-03-22T08:38:14.191Z,77.50
2019-03-22T08:40:42.656Z,77.40
2019-03-22T08:43:11.086Z,75.40
2019-03-22T08:45:39.551Z,74.50
2019-03-22T08:48:08.027Z,74.20
2019-03-22T08:50:36.569Z,73.10
2019-03-22T08:53:05.046Z,73.60
2019-03-22T08:55:33.901Z,71.60
2019-03-22T08:58:02.330Z,71.70
2019-03-22T09:00:39.298Z,71.90
2019-03-22T09:03:01.008Z,71.10
2019-03-22T09:05:29.586Z,70.40
2019-03-22T09:07:58.079Z,71.20
2019-03-22T09:10:26.521Z,70.60
2019-03-22T09:12:54.952Z,69.20
2019-03-22T09:15:23.549Z,69.20
2019-03-22T09:17:52.057Z,67.90
2019-03-22T09:20:20.767Z,68.60
2019-03-22T09:22:49.289Z,68.50
2019-03-22T09:25:17.711Z,68.30
2019-03-22T09:27:46.431Z,69.00
2019-03-22T09:30:15.614Z,65.90
2019-03-22T09:32:44.116Z,66.60
2019-03-22T09:35:12.624Z,66.00
2019-03-22T09:37:41.116Z,65.90
2019-03-22T09:40:09.764Z,66.50
2019-03-22T09:42:38.257Z,66.20
2019-03-22T09:45:08.342Z,65.60
2019-03-22T09:47:36.951Z,65.30
2019-03-22T09:50:10.908Z,65.30
2019-03-22T09:52:39.345Z,64.90
2019-03-22T09:55:13.946Z,65.30
2019-03-22T09:57:38.267Z,64.30
2019-03-22T10:00:10.216Z,64.00
2019-03-22T10:02:39.012Z,63.00
2019-03-22T10:05:07.469Z,63.20
2019-03-22T10:07:35.990Z,64.70
2019-03-22T10:10:06.552Z,64.80
2019-03-22T10:12:35.127Z,63.70
2019-03-22T10:15:04.908Z,65.00
2019-03-22T10:17:33.364Z,64.20
2019-03-22T10:20:01.798Z,62.70
2019-03-22T10:22:30.848Z,62.40
2019-03-22T10:24:59.305Z,63.10
2019-03-22T10:27:27.799Z,62.30
2019-03-22T10:29:56.209Z,63.40
2019-03-22T10:32:24.657Z,63.00
2019-03-22T10:34:53.108Z,62.60
2019-03-22T10:37:21.627Z,62.50
2019-03-22T10:39:50.086Z,61.60
2019-03-22T10:42:18.580Z,62.00
2019-03-22T10:44:47.015Z,61.60
2019-03-22T10:47:17.964Z,62.30
2019-03-22T10:49:45.685Z,60.50
2019-03-22T10:52:14.168Z,61.50
2019-03-22T10:54:42.659Z,62.00
2019-03-22T10:57:11.177Z,61.10
2019-03-22T10:59:39.618Z,59.20
2019-03-22T11:02:08.685Z,59.40
2019-03-22T11:04:37.186Z,60.30
2019-03-22T11:07:05.790Z,59.90
2019-03-22T11:09:34.318Z,62.70
2019-03-22T11:12:11.860Z,60.30
2019-03-22T11:14:32.933Z,59.90
2019-03-22T11:17:01.381Z,59.10
2019-03-22T11:19:29.809Z,59.60
2019-03-22T11:21:58.257Z,58.80
2019-03-22T11:24:26.701Z,58.10
2019-03-22T11:26:55.150Z,59.50
2019-03-22T11:29:23.586Z,54.80
2019-03-22T11:31:52.029Z,51.90
2019-03-22T11:34:20.467Z,54.10
2019-03-22T11:36:48.905Z,52.70
2019-03-22T11:39:17.401Z,54.90
2019-03-22T11:41:45.853Z,55.90
2019-03-22T11:44:14.614Z,55.80
2019-03-22T11:46:43.070Z,55.50
2019-03-22T11:49:11.505Z,55.50
2019-03-22T11:51:40.337Z,53.00
2019-03-22T11:54:08.956Z,51.60
2019-03-22T11:56:37.380Z,53.90
2019-03-22T11:59:06.121Z,54.30
2019-03-22T12:01:34.761Z,55.20
2019-03-22T12:04:09.209Z,55.40
2019-03-22T12:06:35.375Z,55.10
2019-03-22T12:09:05.358Z,55.60
2019-03-22T12:11:33.785Z,55.10
2019-03-22T12:14:02.237Z,54.40
2019-03-22T12:16:30.669Z,54.60
2019-03-22T12:18:59.120Z,55.20
2019-03-22T12:21:27.545Z,55.60
2019-03-22T12:23:56.014Z,53.40
2019-03-22T12:26:24.477Z,53.00
2019-03-22T12:28:52.900Z,54.20
2019-03-22T12:31:21.346Z,54.60
2019-03-22T12:33:49.792Z,54.30
2019-03-22T12:36:18.221Z,52.90
2019-03-22T12:38:46.670Z,50.30
2019-03-22T12:41:15.112Z,49.80
2019-03-22T12:43:43.823Z,49.80
2019-03-22T12:46:12.255Z,49.60
2019-03-22T12:48:40.702Z,48.80
2019-03-22T12:51:09.204Z,50.70
2019-03-22T12:53:37.662Z,49.30
2019-03-22T12:56:06.199Z,50.70
2019-03-22T12:58:34.625Z,51.10
2019-03-22T13:01:17.075Z,49.90
2019-03-22T13:03:45.518Z,49.60
2019-03-22T13:06:14.301Z,50.30
2019-03-22T13:08:43.209Z,48.40
2019-03-22T13:11:11.641Z,49.60
2019-03-22T13:13:42.480Z,50.00
2019-03-22T13:16:10.921Z,50.10
2019-03-22T13:18:49.606Z,47.70
2019-03-22T13:21:09.517Z,48.00
2019-03-22T13:23:38.278Z,48.50
2019-03-22T13:26:07.045Z,49.10
2019-03-22T13:28:35.493Z,50.80
2019-03-22T13:31:03.919Z,49.50
2019-03-22T13:33:32.377Z,50.90
2019-03-22T13:36:01.179Z,48.70
2019-03-22T13:38:29.609Z,49.10
2019-03-22T13:40:58.068Z,46.70
2019-03-22T13:43:26.505Z,47.70
2019-03-22T13:45:54.941Z,48.00
2019-03-22T13:48:23.366Z,47.80
2019-03-22T13:50:51.886Z,47.70
2019-03-22T13:53:20.389Z,47.70
2019-03-22T13:55:48.832Z,47.30
2019-03-22T13:58:17.338Z,47.80
2019-03-22T14:00:45.853Z,47.60
2019-03-22T14:03:14.277Z,46.30
2019-03-22T14:05:43.069Z,47.00
2019-03-22T14:08:11.521Z,48.40
2019-03-22T14:10:39.948Z,46.90
2019-03-22T14:13:08.825Z,46.10
2019-03-22T14:15:37.260Z,46.10
2019-03-22T14:18:05.897Z,46.10
2019-03-22T14:20:34.388Z,47.20
2019-03-22T14:23:02.920Z,47.40
2019-03-22T14:25:31.357Z,45.90
2019-03-22T14:27:59.884Z,45.90
2019-03-22T14:30:28.321Z,46.00
2019-03-22T14:32:56.756Z,44.30
2019-03-22T14:35:25.213Z,45.40
2019-03-22T14:37:53.678Z,47.70
2019-03-22T14:40:22.107Z,47.40
2019-03-22T14:42:50.572Z,47.30
2019-03-22T14:45:19.073Z,47.20
2019-03-22T14:47:47.531Z,47.40
2019-03-22T14:50:16.030Z,47.90
2019-03-22T14:52:44.493Z,47.60
2019-03-22T14:55:13.439Z,49.60
2019-03-22T14:57:48.658Z,47.80
2019-03-22T15:00:13.773Z,46.40
2019-03-22T15:02:42.289Z,47.60
2019-03-22T15:05:11.452Z,47.40
2019-03-22T15:07:39.899Z,47.60
2019-03-22T15:10:10.909Z,47.70
2019-03-22T15:12:39.446Z,46.60
2019-03-22T15:15:26.041Z,46.10
2019-03-22T15:18:08.500Z,47.00
2019-03-22T15:20:41.449Z,47.60
2019-03-22T15:23:17.484Z,46.60
2019-03-22T15:25:50.528Z,47.20
2019-03-22T15:28:38.666Z,47.70
2019-03-22T15:31:08.770Z,48.40
2019-03-22T15:33:55.598Z,48.60
2019-03-22T15:36:34.592Z,47.20
2019-03-22T15:39:10.737Z,48.30
2019-03-22T15:41:39.328Z,48.40
2019-03-22T15:44:07.820Z,47.50
2019-03-22T15:46:36.406Z,48.20
2019-03-22T15:49:04.864Z,48.20
2019-03-22T15:51:33.291Z,48.20
2019-03-22T15:54:02.084Z,48.40
2019-03-22T15:56:30.596Z,49.00
2019-03-22T15:58:59.033Z,49.30
2019-03-22T16:01:27.541Z,49.70
2019-03-22T16:03:55.976Z,49.80
2019-03-22T16:06:24.413Z,49.50
2019-03-22T16:08:52.873Z,49.40
2019-03-22T16:11:21.296Z,50.10
2019-03-22T16:13:49.738Z,50.50
2019-03-22T16:16:18.172Z,50.10
2019-03-22T16:18:46.609Z,50.90
2019-03-22T16:21:15.040Z,51.30
2019-03-22T16:23:43.500Z,50.80
2019-03-22T16:26:11.937Z,50.90
2019-03-22T16:28:40.379Z,51.00
2019-03-22T16:31:08.818Z,51.60
2019-03-22T16:33:37.284Z,51.60
2019-03-22T16:36:05.713Z,52.00
2019-03-22T16:38:34.175Z,52.20
2019-03-22T16:41:02.607Z,52.60
2019-03-22T16:43:31.071Z,53.00
2019-03-22T16:45:59.503Z,52.90
2019-03-22T16:48:28.037Z,53.70
2019-03-22T16:50:56.473Z,53.90
2019-03-22T16:53:24.936Z,54.20
2019-03-22T16:55:53.379Z,54.50
2019-03-22T16:58:21.832Z,54.80
2019-03-22T17:00:50.420Z,55.00
2019-03-22T17:03:18.871Z,56.10
2019-03-22T17:05:47.304Z,56.30
2019-03-22T17:08:15.770Z,56.70
2019-03-22T17:10:44.540Z,56.90
2019-03-22T17:13:13.221Z,58.10
2019-03-22T17:15:41.657Z,58.20
2019-03-22T17:18:10.197Z,58.60
2019-03-22T17:20:38.632Z,58.40
2019-03-22T17:23:07.212Z,59.60
2019-03-22T17:25:35.656Z,60.60
2019-03-22T17:28:04.244Z,59.90
2019-03-22T17:30:32.678Z,60.00
2019-03-22T17:33:01.111Z,60.30
2019-03-22T17:35:29.874Z,60.90
2019-03-22T17:38:17.657Z,61.70
2019-03-22T17:40:46.086Z,61.90
2019-03-22T17:43:14.537Z,61.90
2019-03-22T17:45:43.050Z,62.00
2019-03-22T17:48:11.484Z,63.00
2019-03-22T17:50:39.937Z,63.20
2019-03-22T17:53:08.371Z,63.40
2019-03-22T17:55:36.835Z,63.40
2019-03-22T17:58:05.336Z,64.60
2019-03-22T18:00:33.853Z,65.10
2019-03-22T18:03:02.550Z,65.30
2019-03-22T18:05:31.365Z,65.60
2019-03-22T18:07:59.801Z,65.90
2019-03-22T18:10:28.250Z,66.30
2019-03-22T18:12:56.694Z,66.40
2019-03-22T18:15:25.393Z,66.10
2019-03-22T18:17:53.829Z,66.20
2019-03-22T18:20:22.272Z,66.50
2019-03-22T18:22:50.713Z,67.10
2019-03-22T18:25:19.178Z,66.90
2019-03-22T18:27:47.609Z,66.90
2019-03-22T18:30:16.794Z,67.10
2019-03-22T18:32:45.580Z,67.20
2019-03-22T18:35:14.793Z,67.20
2019-03-22T18:37:43.300Z,67.30
2019-03-22T18:40:15.474Z,67.40
2019-03-22T18:42:43.981Z,67.50
2019-03-22T18:45:15.181Z,67.60
2019-03-22T18:47:43.626Z,67.60
2019-03-22T18:50:13.258Z,67.70
2019-03-22T18:52:41.692Z,68.00
2019-03-22T18:55:10.784Z,68.40
2019-03-22T18:57:39.212Z,68.80
2019-03-22T19:00:15.193Z,69.10
2019-03-22T19:02:43.696Z,68.90
2019-03-22T19:05:13.397Z,69.10
2019-03-22T19:07:41.829Z,69.30
2019-03-22T19:10:13.071Z,70.00
2019-03-22T19:12:41.503Z,70.20
2019-03-22T19:15:11.809Z,70.10
2019-03-22T19:17:40.932Z,70.50
2019-03-22T19:20:11.633Z,70.70
2019-03-22T19:22:40.343Z,70.90
2019-03-22T19:25:09.329Z,71.50
2019-03-22T19:27:38.191Z,71.20
2019-03-22T19:30:09.349Z,71.30
2019-03-22T19:32:37.781Z,71.20
2019-03-22T19:35:07.765Z,71.40
2019-03-22T19:37:36.464Z,71.50
2019-03-22T19:40:09.825Z,71.60
2019-03-22T19:42:38.585Z,72.40
2019-03-22T19:45:09.576Z,72.90
2019-03-22T19:47:38.009Z,73.10
2019-03-22T19:50:08.346Z,74.70
2019-03-22T19:52:36.778Z,75.20
2019-03-22T19:55:07.761Z,74.30
2019-03-22T19:57:36.762Z,76.00
2019-03-22T20:00:07.913Z,76.80
2019-03-22T20:02:36.435Z,76.00
2019-03-22T20:05:07.185Z,75.30
2019-03-22T20:07:35.998Z,75.20
2019-03-22T20:10:12.125Z,75.20
2019-03-22T20:12:40.665Z,75.20
2019-03-22T20:15:11.068Z,75.30
2019-03-22T20:17:39.857Z,75.80
2019-03-22T20:20:09.431Z,77.00
2019-03-22T20:22:37.984Z,77.00
2019-03-22T20:25:08.493Z,76.90
2019-03-22T20:27:36.939Z,77.40
2019-03-22T20:30:11.013Z,76.90
2019-03-22T20:32:39.533Z,76.90
2019-03-22T20:35:16.082Z,76.70
2019-03-22T20:37:39.442Z,76.90
2019-03-22T20:40:10.480Z,77.20
2019-03-22T20:42:38.929Z,76.80
2019-03-22T20:45:08.110Z,77.50
2019-03-22T20:47:36.550Z,77.70
2019-03-22T20:50:07.486Z,78.90
2019-03-22T20:52:36.523Z,79.30
2019-03-22T20:55:09.537Z,80.10
2019-03-22T20:57:37.985Z,80.60
2019-03-22T21:00:12.551Z,80.10
2019-03-22T21:02:40.984Z,80.20
2019-03-22T21:05:09.759Z,80.00
2019-03-22T21:07:38.223Z,80.20
2019-03-22T21:10:08.423Z,79.90
2019-03-22T21:12:36.873Z,79.90
2019-03-22T21:15:07.312Z,80.00
2019-03-22T21:17:35.849Z,79.80
2019-03-22T21:20:07.389Z,79.70
2019-03-22T21:22:35.834Z,80.20
2019-03-22T21:25:08.964Z,79.60
2019-03-22T21:27:37.409Z,79.70
2019-03-22T21:30:11.976Z,79.80
2019-03-22T21:32:45.094Z,79.70
2019-03-22T21:35:21.581Z,79.90
2019-03-22T21:37:40.882Z,80.00
2019-03-22T21:40:11.654Z,80.40
2019-03-22T21:42:40.099Z,80.90
2019-03-22T21:45:09.875Z,81.60
2019-03-22T21:47:38.332Z,82.00
2019-03-22T21:50:08.696Z,81.70
2019-03-22T21:52:37.232Z,81.80
2019-03-22T21:55:07.773Z,81.50
2019-03-22T21:57:36.250Z,81.90
2019-03-22T22:00:10.395Z,81.60
2019-03-22T22:02:38.833Z,81.50
2019-03-22T22:05:08.108Z,81.90
2019-03-22T22:07:36.629Z,81.50
2019-03-22T22:10:07.411Z,81.40
2019-03-22T22:12:35.858Z,81.50
2019-03-22T22:15:08.072Z,81.60
2019-03-22T22:17:36.545Z,81.70
2019-03-22T22:20:07.138Z,82.20
2019-03-22T22:22:35.601Z,82.60
2019-03-22T22:25:06.957Z,82.40
2019-03-22T22:27:35.663Z,82.40
2019-03-22T22:30:06.633Z,81.80
2019-03-22T22:32:35.349Z,81.40
2019-03-22T22:35:06.413Z,82.00
2019-03-22T22:37:34.857Z,81.90
2019-03-22T22:40:07.743Z,81.90
2019-03-22T22:42:36.193Z,81.80
2019-03-22T22:45:06.473Z,82.70
2019-03-22T22:47:34.921Z,82.50
2019-03-22T22:50:04.586Z,83.90
2019-03-22T22:52:33.049Z,84.30
2019-03-22T22:55:01.485Z,84.60
2019-03-22T22:57:29.936Z,84.20
2019-03-22T22:59:58.721Z,83.90
2019-03-22T23:02:27.158Z,84.60
2019-03-22T23:04:55.601Z,83.70
2019-03-22T23:07:24.369Z,84.30
2019-03-22T23:09:52.864Z,83.90
2019-03-22T23:12:21.361Z,83.80
2019-03-22T23:14:50.055Z,83.50
2019-03-22T23:17:18.823Z,83.70
2019-03-22T23:19:47.282Z,83.60
2019-03-22T23:22:15.713Z,83.60
2019-03-22T23:24:44.234Z,83.90
2019-03-22T23:27:12.937Z,83.80
2019-03-22T23:29:41.581Z,83.80
2019-03-22T23:32:10.037Z,83.50
2019-03-22T23:34:38.537Z,83.60
2019-03-22T23:37:07.393Z,83.40
2019-03-22T23:39:35.843Z,83.50
2019-03-22T23:42:04.341Z,83.70
2019-03-22T23:44:32.789Z,83.90
2019-03-22T23:47:01.217Z,83.90
2019-03-22T23:49:29.664Z,84.00
2019-03-22T23:51:58.094Z,84.00
2019-03-22T23:54:26.558Z,83.90
2019-03-22T23:56:55.057Z,84.60
2019-03-22T23:59:23.545Z,83.70
